Aérodrome :
LOGIN :

S'inscrire | Disclaimer

   EN    FR    IT 

 










Légende :    VFR   VFR Marginal   IFR   IFR Intensif   IFR Très Intensif
Visi : 
Plafond : 
>= 8 km
>= 3000ft
5 à 8 km
1000 à 3000 ft
1500m à 5 km
500 à 1000 ft
800 à 1500m
200 à 500 ft
< 800m
< 200 ft
Symboles :   Orages  Brouillard  Fortes neiges  Fortes précipitations  Vent > 20 kt
SIGMETs :   Divers  Orages  Givrage  Turbulence  Onde Orograph.  Cendres Volcan.







- Altitude de l'aérodrome : 465 ft
- Code IATA : LEJ


EDDP - Leipzig Halle

DERNIER METAR :
  • 131820Z 20021G31KT 9999 -RA FEW013 BKN020 03/01 Q0999 TEMPO 4000 -RASN

METARs EXPIRÉS :
  • 131750Z 18018KT 9999 -RA FEW013 BKN025 03/M00 Q1000 TEMPO 18020G30KT 4000 -RASN
  • 131720Z 19020KT 9999 -RA BKN033 03/M00 Q1000 TEMPO 18015G25KT 4000 RASN
  • 131650Z 17022KT 9999 -RA BKN045 04/M02 Q1001 TEMPO 18015G25KT 4000 RASN
  • 131620Z 18019KT 9999 FEW025 BKN060 04/M02 Q1001 TEMPO 18015G25KT 4000 RASN
  • 131550Z 17017KT CAVOK 04/M02 Q1002 TEMPO 18015G25KT 4000 RASN

TAF TAF EDDP
Valide du 13 à 18h jusqu'au 14 à 18h UTC


131700Z 1318/1418 19015G25KT 9999 BKN020
TEMPO 1318/1320 4000 -RASN BKN009
TEMPO 1400/1404 4000 -RADZ BKN014
TEMPO 1407/1412 3500 RASN BKN007
BECMG 1408/1410 23020G30KT
Pas de NOTAMs connus pour ce terrain.
1 SIGMET publié pour la FIR München (EDMM) :
 
Turbulence forte
EDMM SIGMET 1 VALID 131750/132000 EDZM
EDMM MUNCHEN FIR SEV TURB FCST S OF N4900 AND W OF E01100 SFC/FL060 MOV E NC=



MET'MAP, la Météo Aéronautique d'un coup d'oeil ! - Copyright ORBIFLY Décembre 2007 - Disclaimer

ORBIFLY MET'MAP TEAM :

Programmation & Développement : Alexandra Zaïnal
Conception & Développement : Baudouin d'Aumeries
Co-Programmation & Développement : Marc-Olivier Méhu
Soutien technique & logistique : Manuel Goepfert

Contact : metmap@orbifly.com




SOURCES & CREDITS :

   NOAA